createdAt,value
2018-07-16T00:00:25.555Z,14.70
2018-07-16T00:02:54.623Z,14.70
2018-07-16T00:05:23.683Z,14.60
2018-07-16T00:07:52.730Z,14.70
2018-07-16T00:10:21.819Z,14.60
2018-07-16T00:12:50.876Z,14.60
2018-07-16T00:15:19.952Z,14.60
2018-07-16T00:17:48.995Z,14.60
2018-07-16T00:20:18.063Z,14.80
2018-07-16T00:22:47.115Z,14.80
2018-07-16T00:25:16.204Z,14.70
2018-07-16T00:30:14.415Z,14.60
2018-07-16T00:32:43.469Z,14.60
2018-07-16T00:40:09.951Z,14.70
2018-07-16T00:45:07.756Z,14.60
2018-07-16T00:47:36.823Z,14.40
2018-07-16T00:50:05.889Z,14.40
2018-07-16T00:52:34.943Z,14.30
2018-07-16T00:55:04.023Z,14.30
2018-07-16T00:57:33.090Z,14.10
2018-07-16T01:00:02.179Z,14.10
2018-07-16T01:02:31.242Z,14.20
2018-07-16T01:05:00.319Z,14.10
2018-07-16T01:07:29.381Z,14.10
2018-07-16T01:09:58.477Z,14.00
2018-07-16T01:12:27.527Z,13.90
2018-07-16T01:14:56.600Z,13.80
2018-07-16T01:17:25.652Z,13.80
2018-07-16T01:19:54.724Z,13.80
2018-07-16T01:22:23.771Z,13.70
2018-07-16T01:29:50.191Z,13.50
2018-07-16T01:32:19.245Z,13.50
2018-07-16T01:34:48.313Z,13.50
2018-07-16T01:37:17.421Z,13.50
2018-07-16T01:39:46.488Z,13.50
2018-07-16T01:42:15.547Z,13.40
2018-07-16T01:44:44.616Z,13.50
2018-07-16T01:49:42.356Z,13.60
2018-07-16T01:52:11.416Z,13.50
2018-07-16T01:54:40.479Z,13.40
2018-07-16T01:57:09.536Z,13.30
2018-07-16T01:59:38.608Z,13.30
2018-07-16T02:02:07.712Z,13.30
2018-07-16T02:04:36.784Z,13.20
2018-07-16T02:07:05.844Z,13.10
2018-07-16T02:09:34.941Z,13.00
2018-07-16T02:12:03.995Z,13.00
2018-07-16T02:14:33.065Z,12.90
2018-07-16T02:19:30.845Z,12.90
2018-07-16T02:24:28.579Z,13.00
2018-07-16T02:26:57.672Z,12.90
2018-07-16T02:29:26.764Z,12.90
2018-07-16T02:31:55.812Z,12.80
2018-07-16T02:36:53.564Z,12.70
2018-07-16T02:39:22.620Z,12.80
2018-07-16T02:41:51.733Z,12.90
2018-07-16T02:44:20.785Z,13.10
2018-07-16T02:51:47.252Z,13.30
2018-07-16T02:56:44.992Z,13.40
2018-07-16T02:59:14.047Z,13.30
2018-07-16T03:01:43.137Z,13.30
2018-07-16T03:09:09.580Z,13.50
2018-07-16T03:11:38.645Z,13.70
2018-07-16T03:14:07.696Z,13.70
2018-07-16T03:16:36.764Z,13.60
2018-07-16T03:19:06.105Z,13.50
2018-07-16T03:21:35.175Z,13.40
2018-07-16T03:24:04.244Z,13.30
2018-07-16T03:26:33.314Z,13.10
2018-07-16T03:29:02.364Z,13.00
2018-07-16T03:31:31.434Z,12.90
2018-07-16T03:34:00.496Z,12.80
2018-07-16T03:36:29.562Z,12.80
2018-07-16T03:41:27.840Z,12.70
2018-07-16T03:43:56.891Z,12.70
2018-07-16T03:46:25.954Z,12.70
2018-07-16T03:51:23.683Z,12.80
2018-07-16T03:53:52.851Z,12.80
2018-07-16T03:56:21.928Z,12.90
2018-07-16T04:01:19.747Z,13.00
2018-07-16T04:03:48.795Z,13.00
2018-07-16T04:06:17.856Z,13.00
2018-07-16T04:08:46.912Z,13.00
2018-07-16T04:11:16.001Z,13.00
2018-07-16T04:21:11.148Z,13.50
2018-07-16T04:26:08.923Z,13.60
2018-07-16T04:33:36.192Z,14.10
2018-07-16T04:36:05.272Z,14.20
2018-07-16T04:38:34.320Z,14.30
2018-07-16T04:41:03.389Z,14.50
2018-07-16T04:43:32.440Z,14.60
2018-07-16T04:46:01.514Z,14.70
2018-07-16T04:48:31.244Z,14.80
2018-07-16T04:51:00.315Z,14.90
2018-07-16T04:53:36.140Z,15.10
2018-07-16T04:56:05.267Z,15.20
2018-07-16T05:01:03.000Z,15.50
2018-07-16T05:03:32.056Z,15.60
2018-07-16T05:06:01.138Z,15.70
2018-07-16T05:08:30.195Z,15.90
2018-07-16T05:10:59.276Z,15.90
2018-07-16T05:13:28.347Z,15.90
2018-07-16T05:15:57.420Z,16.00
2018-07-16T05:18:26.670Z,16.10
2018-07-16T05:20:55.591Z,16.20
2018-07-16T05:25:53.400Z,16.50
2018-07-16T05:28:22.476Z,16.70
2018-07-16T05:33:20.325Z,16.90
2018-07-16T05:35:49.396Z,17.10
2018-07-16T05:38:18.637Z,17.30
2018-07-16T05:40:47.639Z,17.50
2018-07-16T05:45:45.423Z,17.80
2018-07-16T05:48:14.539Z,17.90
2018-07-16T05:55:40.988Z,18.40
2018-07-16T05:58:10.088Z,18.40
2018-07-16T06:00:39.141Z,18.50
2018-07-16T06:03:08.216Z,18.70
2018-07-16T06:05:37.372Z,18.90
2018-07-16T06:08:06.448Z,19.00
2018-07-16T06:10:35.524Z,19.20
2018-07-16T06:13:04.708Z,19.30
2018-07-16T06:15:33.766Z,19.60
2018-07-16T06:18:02.873Z,19.60
2018-07-16T06:23:00.620Z,20.00
2018-07-16T06:25:29.680Z,20.20
2018-07-16T06:27:58.821Z,20.30
2018-07-16T06:30:27.879Z,20.40
2018-07-16T06:32:56.949Z,20.40
2018-07-16T06:35:26.000Z,20.60
2018-07-16T06:37:55.072Z,20.80
2018-07-16T06:40:24.240Z,21.00
2018-07-16T06:42:53.375Z,21.30
2018-07-16T06:45:22.980Z,21.40
2018-07-16T06:47:52.113Z,21.50
2018-07-16T06:50:21.643Z,21.50
2018-07-16T06:55:19.396Z,21.90
2018-07-16T06:57:48.469Z,22.10
2018-07-16T07:00:17.524Z,22.20
2018-07-16T07:02:46.595Z,22.40
2018-07-16T07:05:15.660Z,22.50
2018-07-16T07:07:44.734Z,22.40
2018-07-16T07:10:13.808Z,22.40
2018-07-16T07:12:42.887Z,22.50
2018-07-16T07:15:11.949Z,22.40
2018-07-16T07:17:41.011Z,22.40
2018-07-16T07:20:10.064Z,22.40
2018-07-16T07:22:39.140Z,22.50
2018-07-16T07:25:08.306Z,22.40
2018-07-16T07:27:37.372Z,22.50
2018-07-16T07:30:06.436Z,22.70
2018-07-16T07:32:35.524Z,22.90
2018-07-16T07:35:04.711Z,23.00
2018-07-16T07:37:33.957Z,23.20
2018-07-16T07:42:31.708Z,23.50
2018-07-16T07:45:00.779Z,23.40
2018-07-16T07:47:29.838Z,23.50
2018-07-16T07:52:27.592Z,23.90
2018-07-16T07:54:56.933Z,24.00
2018-07-16T07:57:25.752Z,24.10
2018-07-16T07:59:54.847Z,24.10
2018-07-16T08:02:23.895Z,24.30
2018-07-16T08:09:50.344Z,24.60
2018-07-16T08:12:19.403Z,24.90
2018-07-16T08:14:48.488Z,25.00
2018-07-16T08:17:17.556Z,25.10
2018-07-16T08:19:46.637Z,25.10
2018-07-16T08:22:15.691Z,25.10
2018-07-16T08:24:45.076Z,25.00
2018-07-16T08:27:14.237Z,25.10
2018-07-16T08:32:12.000Z,25.60
2018-07-16T08:34:41.084Z,25.20
2018-07-16T08:37:10.224Z,25.30
2018-07-16T08:42:08.009Z,25.80
2018-07-16T08:44:37.104Z,26.00
2018-07-16T08:47:06.173Z,26.30
2018-07-16T08:49:35.245Z,26.50
2018-07-16T08:52:04.301Z,26.70
2018-07-16T08:57:02.069Z,26.70
2018-07-16T09:01:59.828Z,26.80
2018-07-16T09:04:28.900Z,26.80
2018-07-16T09:06:57.966Z,26.90
2018-07-16T09:09:27.064Z,26.90
2018-07-16T09:11:56.158Z,27.20
2018-07-16T09:14:25.275Z,27.40
2018-07-16T09:16:54.405Z,27.60
2018-07-16T09:19:23.428Z,27.70
2018-07-16T09:24:21.179Z,27.90
2018-07-16T09:26:50.288Z,28.00
2018-07-16T09:29:19.368Z,28.20
2018-07-16T09:31:48.420Z,28.20
2018-07-16T09:34:17.513Z,28.30
2018-07-16T09:36:46.564Z,28.40
2018-07-16T09:39:15.678Z,28.30
2018-07-16T09:41:44.722Z,28.40
2018-07-16T09:44:13.797Z,28.60
2018-07-16T09:46:42.870Z,28.70
2018-07-16T09:49:11.932Z,28.70
2018-07-16T09:51:40.988Z,28.50
2018-07-16T09:54:10.123Z,28.50
2018-07-16T09:56:39.180Z,28.50
2018-07-16T09:59:08.252Z,28.60
2018-07-16T10:01:43.336Z,28.50
2018-07-16T10:04:13.268Z,28.40
2018-07-16T10:06:42.336Z,28.20
2018-07-16T10:09:11.444Z,28.20
2018-07-16T10:11:40.496Z,27.90
2018-07-16T10:16:38.240Z,27.70
2018-07-16T10:19:07.287Z,27.80
2018-07-16T10:24:05.104Z,27.90
2018-07-16T10:26:34.190Z,27.70
2018-07-16T10:29:03.274Z,27.90
2018-07-16T10:31:32.344Z,28.10
2018-07-16T10:34:01.428Z,28.30
2018-07-16T10:36:30.495Z,28.50
2018-07-16T10:38:59.546Z,28.80
2018-07-16T10:41:28.620Z,28.90
2018-07-16T10:43:57.675Z,28.90
2018-07-16T10:46:26.757Z,29.10
2018-07-16T10:48:55.803Z,29.20
2018-07-16T10:51:24.884Z,29.30
2018-07-16T10:53:53.936Z,29.50
2018-07-16T10:56:23.017Z,29.50
2018-07-16T11:01:20.801Z,30.10
2018-07-16T11:06:21.710Z,30.50
2018-07-16T11:08:51.695Z,30.50
2018-07-16T11:11:21.027Z,30.50
2018-07-16T11:13:50.208Z,30.50
2018-07-16T11:16:19.340Z,30.70
2018-07-16T11:18:48.399Z,30.60
2018-07-16T11:21:17.480Z,30.70
2018-07-16T11:23:46.536Z,30.90
2018-07-16T11:26:15.612Z,31.20
2018-07-16T11:28:44.664Z,31.50
2018-07-16T11:31:13.732Z,31.70
2018-07-16T11:36:11.488Z,31.60
2018-07-16T11:38:40.544Z,31.50
2018-07-16T11:41:09.615Z,31.60
2018-07-16T11:43:38.674Z,31.20
2018-07-16T11:46:07.876Z,31.00
2018-07-16T11:48:36.896Z,31.20
2018-07-16T11:53:35.488Z,31.60
2018-07-16T11:56:04.563Z,31.80
2018-07-16T11:58:33.642Z,32.20
2018-07-16T12:01:02.715Z,32.30
2018-07-16T12:03:31.905Z,32.40
2018-07-16T12:08:29.576Z,32.40
2018-07-16T12:10:58.669Z,32.20
2018-07-16T12:15:56.840Z,32.70
2018-07-16T12:18:25.896Z,31.90
2018-07-16T12:20:54.968Z,31.00
2018-07-16T12:23:24.021Z,30.30
2018-07-16T12:25:53.147Z,30.10
2018-07-16T12:28:22.175Z,30.30
2018-07-16T12:30:51.248Z,30.80
2018-07-16T12:33:20.304Z,31.20
2018-07-16T12:35:49.372Z,31.40
2018-07-16T12:38:18.472Z,31.60
2018-07-16T12:40:47.549Z,31.80
2018-07-16T12:43:16.853Z,32.10
2018-07-16T12:45:45.934Z,32.00
2018-07-16T12:48:15.089Z,32.00
2018-07-16T12:50:44.065Z,32.50
2018-07-16T12:53:13.140Z,32.50
2018-07-16T12:55:42.191Z,31.70
2018-07-16T12:58:11.263Z,31.00
2018-07-16T13:00:40.320Z,30.40
2018-07-16T13:03:09.392Z,30.10
2018-07-16T13:08:07.148Z,30.20
2018-07-16T13:10:36.220Z,31.70
2018-07-16T13:13:05.320Z,33.10
2018-07-16T13:15:34.371Z,34.20
2018-07-16T13:18:03.452Z,34.90
2018-07-16T13:20:32.628Z,35.60
2018-07-16T13:23:01.699Z,35.40
2018-07-16T13:25:30.751Z,35.70
2018-07-16T13:27:59.825Z,35.60
2018-07-16T13:30:28.876Z,34.60
2018-07-16T13:32:57.953Z,35.40
2018-07-16T13:35:27.004Z,35.50
2018-07-16T13:37:56.079Z,37.50
2018-07-16T13:40:25.132Z,38.90
2018-07-16T13:42:54.284Z,39.20
2018-07-16T13:45:23.341Z,36.00
2018-07-16T13:47:52.432Z,34.40
2018-07-16T13:50:21.495Z,32.90
2018-07-16T13:52:50.617Z,32.50
2018-07-16T13:57:48.388Z,34.50
2018-07-16T14:02:46.136Z,37.40
2018-07-16T14:05:15.192Z,39.40
2018-07-16T14:07:44.416Z,40.60
2018-07-16T14:10:13.504Z,41.30
2018-07-16T14:12:42.576Z,41.20
2018-07-16T14:15:11.628Z,41.90
2018-07-16T14:17:40.700Z,41.50
2018-07-16T14:20:09.756Z,41.60
2018-07-16T14:22:38.827Z,40.60
2018-07-16T14:25:08.056Z,41.10
2018-07-16T14:27:37.141Z,40.70
2018-07-16T14:35:03.581Z,41.10
2018-07-16T14:37:32.752Z,38.90
2018-07-16T14:40:02.269Z,37.70
2018-07-16T14:42:31.976Z,36.50
2018-07-16T14:45:01.141Z,35.60
2018-07-16T14:47:30.749Z,34.70
2018-07-16T14:49:59.779Z,36.00
2018-07-16T14:52:29.879Z,38.20
2018-07-16T14:54:59.032Z,39.00
2018-07-16T14:59:56.800Z,35.90
2018-07-16T15:02:25.884Z,34.80
2018-07-16T15:04:54.952Z,34.30
2018-07-16T15:07:24.056Z,33.30
2018-07-16T15:09:53.144Z,33.10
2018-07-16T15:12:22.235Z,32.70
2018-07-16T15:14:51.292Z,32.40
2018-07-16T15:22:17.772Z,32.60
2018-07-16T15:27:15.672Z,34.50
2018-07-16T15:29:45.652Z,35.10
2018-07-16T15:32:14.717Z,36.50
2018-07-16T15:34:43.791Z,38.30
2018-07-16T15:37:12.953Z,39.60
2018-07-16T15:42:11.036Z,41.90
2018-07-16T15:44:40.131Z,41.40
2018-07-16T15:47:09.383Z,41.50
2018-07-16T15:49:38.461Z,41.40
2018-07-16T15:52:07.520Z,42.40
2018-07-16T15:54:36.601Z,43.00
2018-07-16T15:57:05.701Z,41.90
2018-07-16T15:59:34.780Z,43.30
2018-07-16T16:02:03.901Z,43.80
2018-07-16T16:04:32.975Z,44.40
2018-07-16T16:07:02.024Z,45.80
2018-07-16T16:11:59.975Z,46.90
2018-07-16T16:14:29.047Z,46.80
2018-07-16T16:16:58.268Z,47.20
2018-07-16T16:19:27.375Z,47.10
2018-07-16T16:21:56.429Z,46.80
2018-07-16T16:24:25.508Z,46.90
2018-07-16T16:26:54.565Z,47.30
2018-07-16T16:29:23.644Z,46.90
2018-07-16T16:31:53.219Z,45.10
2018-07-16T16:34:22.303Z,44.10
2018-07-16T16:36:51.355Z,43.00
2018-07-16T16:39:20.441Z,43.10
2018-07-16T16:41:49.492Z,44.10
2018-07-16T16:44:18.571Z,45.00
2018-07-16T16:49:16.361Z,44.60
2018-07-16T16:59:11.832Z,44.60
2018-07-16T17:01:40.892Z,44.60
2018-07-16T17:04:09.982Z,44.80
2018-07-16T17:06:39.248Z,44.40
2018-07-16T17:09:08.772Z,44.60
2018-07-16T17:11:37.852Z,44.70
2018-07-16T17:14:06.947Z,44.00
2018-07-16T17:16:36.051Z,42.70
2018-07-16T17:19:05.237Z,42.80
2018-07-16T17:21:34.295Z,43.00
2018-07-16T17:24:03.372Z,43.30
2018-07-16T17:26:32.432Z,44.40
2018-07-16T17:29:01.518Z,44.70
2018-07-16T17:31:30.683Z,43.90
2018-07-16T17:36:28.505Z,43.50
2018-07-16T17:38:57.584Z,43.70
2018-07-16T17:41:26.650Z,44.00
2018-07-16T17:43:55.728Z,44.20
2018-07-16T17:46:24.786Z,44.20
2018-07-16T17:48:53.880Z,43.40
2018-07-16T17:51:22.930Z,43.30
2018-07-16T17:53:52.041Z,42.70
2018-07-16T17:56:21.117Z,42.20
2018-07-16T17:58:50.234Z,42.60
2018-07-16T18:01:19.418Z,42.40
2018-07-16T18:03:48.356Z,41.90
2018-07-16T18:06:17.439Z,42.00
2018-07-16T18:08:46.496Z,41.20
2018-07-16T18:11:15.592Z,41.00
2018-07-16T18:13:44.647Z,41.10
2018-07-16T18:16:13.723Z,40.60
2018-07-16T18:21:11.897Z,39.90
2018-07-16T18:23:40.924Z,39.50
2018-07-16T18:26:09.988Z,39.20
2018-07-16T18:28:39.143Z,39.10
2018-07-16T18:31:08.137Z,38.80
2018-07-16T18:33:37.188Z,38.60
2018-07-16T18:36:06.292Z,38.20
2018-07-16T18:38:35.356Z,37.40
2018-07-16T18:41:04.444Z,36.40
2018-07-16T18:43:33.511Z,36.00
2018-07-16T18:46:02.580Z,35.10
2018-07-16T18:48:31.644Z,34.10
2018-07-16T18:51:00.764Z,33.20
2018-07-16T18:55:58.524Z,31.40
2018-07-16T18:58:27.583Z,30.80
2018-07-16T19:00:57.669Z,30.50
2018-07-16T19:03:27.535Z,29.80
2018-07-16T19:05:57.247Z,29.40
2018-07-16T19:08:26.300Z,29.00
2018-07-16T19:10:55.400Z,28.50
2018-07-16T19:13:24.461Z,27.90
2018-07-16T19:15:53.535Z,27.70
2018-07-16T19:18:22.629Z,27.30
2018-07-16T19:20:51.712Z,27.00
2018-07-16T19:23:20.764Z,26.60
2018-07-16T19:25:49.835Z,26.20
2018-07-16T19:28:18.979Z,25.90
2018-07-16T19:30:48.048Z,25.60
2018-07-16T19:35:45.825Z,25.00
2018-07-16T19:40:43.576Z,24.60
2018-07-16T19:43:12.628Z,24.40
2018-07-16T19:45:41.704Z,24.30
2018-07-16T19:50:39.644Z,23.90
2018-07-16T19:53:09.316Z,23.80
2018-07-16T19:55:38.392Z,23.60
2018-07-16T20:00:36.180Z,23.40
2018-07-16T20:03:05.620Z,23.30
2018-07-16T20:05:34.832Z,23.10
2018-07-16T20:08:04.167Z,23.10
2018-07-16T20:10:33.460Z,23.00
2018-07-16T20:13:02.540Z,22.90
2018-07-16T20:15:31.729Z,22.90
2018-07-16T20:18:00.769Z,22.80
2018-07-16T20:20:29.856Z,22.70
2018-07-16T20:22:58.934Z,22.60
2018-07-16T20:25:27.995Z,22.50
2018-07-16T20:27:57.064Z,22.40
2018-07-16T20:32:54.839Z,22.20
2018-07-16T20:35:24.219Z,22.00
2018-07-16T20:37:53.296Z,21.80
2018-07-16T20:40:22.352Z,21.70
2018-07-16T20:42:51.428Z,21.60
2018-07-16T20:45:20.476Z,21.40
2018-07-16T20:47:49.800Z,21.30
2018-07-16T20:50:18.868Z,21.20
2018-07-16T20:52:47.943Z,21.20
2018-07-16T20:55:17.024Z,21.00
2018-07-16T21:00:14.773Z,20.80
2018-07-16T21:02:43.849Z,20.70
2018-07-16T21:05:12.909Z,20.60
2018-07-16T21:07:42.073Z,20.50
2018-07-16T21:10:11.116Z,20.40
2018-07-16T21:12:40.189Z,20.40
2018-07-16T21:17:38.084Z,20.10
2018-07-16T21:22:36.111Z,20.00
2018-07-16T21:25:06.507Z,19.90
2018-07-16T21:27:35.592Z,19.80
2018-07-16T21:32:33.828Z,19.50
2018-07-16T21:35:03.012Z,19.50
2018-07-16T21:37:32.181Z,19.40
2018-07-16T21:47:27.332Z,18.90
2018-07-16T21:54:54.123Z,18.70
2018-07-16T22:04:50.184Z,18.30
2018-07-16T22:07:19.256Z,18.20
2018-07-16T22:09:48.328Z,18.10
2018-07-16T22:12:17.405Z,18.10
2018-07-16T22:14:46.460Z,18.00
2018-07-16T22:17:15.625Z,18.00
2018-07-16T22:19:44.668Z,18.00
2018-07-16T22:22:13.740Z,18.00
2018-07-16T22:27:11.664Z,17.90
2018-07-16T22:29:40.708Z,17.90
2018-07-16T22:32:09.776Z,17.80
2018-07-16T22:34:38.820Z,17.70
2018-07-16T22:37:07.891Z,17.70
2018-07-16T22:39:36.953Z,17.70
2018-07-16T22:42:06.017Z,17.80
2018-07-16T22:44:35.089Z,17.80
2018-07-16T22:47:04.135Z,17.60
2018-07-16T22:49:33.207Z,17.60
2018-07-16T22:52:02.261Z,17.50
2018-07-16T22:54:31.327Z,17.50
2018-07-16T22:57:00.493Z,17.40
2018-07-16T22:59:29.665Z,17.40
2018-07-16T23:01:58.711Z,17.60
2018-07-16T23:04:27.795Z,17.50
2018-07-16T23:09:25.564Z,17.20
2018-07-16T23:11:54.628Z,17.20
2018-07-16T23:14:23.836Z,17.00
2018-07-16T23:16:52.882Z,16.90
2018-07-16T23:19:21.956Z,16.80
2018-07-16T23:24:20.007Z,16.70
2018-07-16T23:26:49.060Z,16.70
2018-07-16T23:29:18.140Z,16.60
2018-07-16T23:34:15.935Z,16.50
2018-07-16T23:36:44.988Z,16.50
2018-07-16T23:39:14.092Z,16.50
2018-07-16T23:41:43.864Z,16.50
2018-07-16T23:44:12.960Z,16.50
2018-07-16T23:46:42.016Z,16.60
2018-07-16T23:49:11.087Z,16.90
2018-07-16T23:51:40.136Z,16.80
2018-07-16T23:54:09.212Z,16.90
2018-07-16T23:59:06.952Z,17.00
